Time;durP1;ratioP1;P1;durP2;ratioP2;P2;SDS_P1;SDS_P2;PMS_P1;PMS_P2;Temp;Humidity;BMP_temperature;BMP_pressure;BME280_temperature;BME280_humidity;BME280_pressure;Samples;Min_cycle;Max_cycle;Signal;HPM_P1;HPM_P2
2022/01/01 00:00:27;;;;;;;17.50;7.25;;;;;;;18.78;68.06;99732.94;3156458;28;20048;-46
2022/01/01 00:01:59;;;;;;;18.50;9.13;;;;;;;19.06;72.60;99733.28;3164564;28;20061;-55
2022/01/01 13:39:04;;;;;;;117.40;54.28;;;;;;;17.27;70.86;99700.72;3116678;27;20423;-56
2022/01/01 13:40:36;;;;;;;119.40;59.63;;;;;;;17.27;70.83;99698.03;3104152;28;20542;-51
2022/01/01 13:42:10;;;;;;;122.20;63.47;;;;;;;17.25;71.00;99697.38;3104982;28;20136;-55
2022/01/01 13:43:43;;;;;;;133.82;63.92;;;;;;;17.25;71.14;99697.38;3105460;28;20168;-54
2022/01/01 13:45:15;;;;;;;141.43;68.75;;;;;;;17.25;70.99;99702.75;3104360;28;21286;-52
2022/01/01 13:46:48;;;;;;;130.23;69.10;;;;;;;17.26;70.98;99699.06;3105465;28;20053;-59
2022/01/01 13:48:19;;;;;;;157.20;72.72;;;;;;;17.31;71.27;99692.19;3110831;28;20569;-54
2022/01/01 13:49:55;;;;;;;166.25;79.18;;;;;;;17.40;71.75;99695.69;3108163;28;20054;-50
2022/01/01 13:51:28;;;;;;;189.68;90.57;;;;;;;17.43;72.44;99700.69;3109334;28;20049;-52
2022/01/01 13:53:04;;;;;;;185.00;93.63;;;;;;;17.45;72.49;99696.00;3108280;28;20054;-51
2022/01/01 13:54:38;;;;;;;187.98;94.35;;;;;;;17.46;72.71;99703.03;3107319;28;20041;-56
2022/01/01 13:56:12;;;;;;;199.15;97.55;;;;;;;17.47;72.64;99711.91;3108445;28;20061;-53
2022/01/01 13:57:52;;;;;;;198.77;99.40;;;;;;;17.49;72.69;99716.09;3109531;28;20065;-54
2022/01/01 13:59:27;;;;;;;182.63;95.80;;;;;;;17.49;72.58;99705.38;3107877;28;20104;-53
2022/01/01 14:00:59;;;;;;;179.77;95.80;;;;;;;17.52;72.72;99704.19;3107233;28;20046;-52
2022/01/01 14:02:33;;;;;;;189.77;94.68;;;;;;;17.55;72.45;99710.09;3105545;28;20092;-54
2022/01/01 14:04:05;;;;;;;193.82;97.10;;;;;;;17.54;72.54;99711.06;3104845;28;20054;-50
2022/01/01 14:05:40;;;;;;;193.32;100.70;;;;;;;17.50;72.37;99712.44;3105534;28;20072;-54
2022/01/01 14:07:14;;;;;;;189.60;93.03;;;;;;;17.50;72.40;99712.44;3106276;28;20053;-50
2022/01/01 14:08:57;;;;;;;187.82;95.65;;;;;;;17.48;72.41;99709.06;3108589;28;20053;-51
2022/01/01 14:10:33;;;;;;;173.57;92.80;;;;;;;17.47;72.44;99706.56;3107460;28;20081;-53
2022/01/01 14:12:07;;;;;;;187.35;96.10;;;;;;;17.45;72.56;99717.47;3103859;28;20570;-53
2022/01/01 14:13:39;;;;;;;185.30;94.93;;;;;;;17.45;72.43;99711.28;3104682;28;20104;-54
2022/01/01 14:15:14;;;;;;;175.95;96.65;;;;;;;17.45;72.45;99712.09;3105263;28;20074;-51
2022/01/01 14:16:47;;;;;;;190.85;93.32;;;;;;;17.45;72.46;99717.47;3108382;28;20058;-56
2022/01/01 14:18:27;;;;;;;186.82;92.90;;;;;;;17.45;72.33;99719.31;3106660;28;20968;-53
2022/01/01 14:20:20;;;;;;;171.77;92.28;;;;;;;17.46;72.27;99716.44;3102612;28;20054;-54
2022/01/01 14:21:54;;;;;;;171.88;90.28;;;;;;;17.46;72.32;99719.13;3102740;28;20076;-55
2022/01/01 14:23:28;;;;;;;181.00;91.20;;;;;;;17.45;72.12;99722.81;3104357;28;20073;-53
2022/01/01 14:25:00;;;;;;;171.85;89.57;;;;;;;17.46;72.07;99727.19;3105773;28;20049;-56
2022/01/01 14:26:41;;;;;;;183.82;93.53;;;;;;;17.46;72.07;99721.81;3103329;28;20500;-56
2022/01/01 14:28:13;;;;;;;167.80;91.32;;;;;;;17.48;71.99;99733.22;3106038;28;20053;-56
2022/01/01 14:29:45;;;;;;;159.15;88.05;;;;;;;17.49;72.09;99734.06;3105797;28;20120;-54
2022/01/01 14:31:17;;;;;;;169.82;90.13;;;;;;;17.47;72.08;99731.56;3106725;28;20524;-57
2022/01/01 14:32:50;;;;;;;170.10;89.40;;;;;;;17.49;72.04;99734.06;3107662;28;20054;-56
2022/01/01 14:34:21;;;;;;;165.20;88.43;;;;;;;17.49;72.05;99734.06;3104669;28;20112;-54
2022/01/01 14:36:01;;;;;;;163.30;88.10;;;;;;;17.48;71.71;99730.53;3104162;28;20049;-57
2022/01/01 14:37:33;;;;;;;166.48;87.13;;;;;;;17.50;71.76;99735.75;3106234;28;20062;-51
2022/01/01 14:39:05;;;;;;;171.18;87.78;;;;;;;17.50;71.86;99741.09;3106983;28;20057;-53
2022/01/01 14:40:37;;;;;;;159.25;85.40;;;;;;;17.51;71.78;99735.56;3105433;28;20056;-52
2022/01/01 14:42:11;;;;;;;160.65;85.13;;;;;;;17.54;71.74;99739.75;3105412;28;20116;-53
2022/01/01 14:43:42;;;;;;;147.48;76.65;;;;;;;17.57;71.95;99729.50;3105906;28;20420;-52
2022/01/01 14:45:14;;;;;;;148.65;75.65;;;;;;;17.62;72.18;99737.88;3103264;28;20041;-59
2022/01/01 14:46:53;;;;;;;146.77;77.15;;;;;;;17.64;72.02;99741.25;3106180;28;20053;-60
2022/01/01 14:48:29;;;;;;;136.27;76.22;;;;;;;17.64;71.94;99733.19;3104517;28;20038;-56
2022/01/01 14:50:04;;;;;;;146.80;73.93;;;;;;;17.63;71.84;99731.53;3101155;28;20050;-58
2022/01/01 14:51:44;;;;;;;145.40;73.65;;;;;;;17.60;71.71;99734.53;3093588;28;20276;-61
2022/01/01 14:53:27;;;;;;;139.70;75.18;;;;;;;17.60;71.81;99731.84;3097242;28;20046;-60
2022/01/01 14:55:05;;;;;;;136.45;71.05;;;;;;;17.58;71.94;99736.56;3091609;28;20064;-55
2022/01/01 14:56:51;;;;;;;144.48;72.32;;;;;;;17.61;71.81;99733.53;3097651;28;20054;-53
2022/01/01 14:58:31;;;;;;;140.13;74.28;;;;;;;17.65;71.65;99745.59;3098567;28;20054;-56
2022/01/01 15:00:09;;;;;;;143.75;69.55;;;;;;;17.61;72.06;99733.53;3094815;28;20564;-57
2022/01/01 15:01:42;;;;;;;137.45;68.55;;;;;;;17.58;71.73;99741.94;3095566;28;20751;-56
2022/01/01 15:03:14;;;;;;;137.07;69.07;;;;;;;17.56;71.80;99738.56;3094701;28;20190;-53
2022/01/01 15:04:46;;;;;;;128.18;71.95;;;;;;;17.55;71.69;99738.72;3094748;28;20050;-60
2022/01/01 15:06:18;;;;;;;129.52;67.65;;;;;;;17.53;71.67;99736.22;3093775;28;20052;-58
2022/01/01 15:07:54;;;;;;;137.45;69.93;;;;;;;17.53;71.51;99738.09;3094133;28;20049;-54
2022/01/01 15:09:28;;;;;;;123.30;69.22;;;;;;;17.61;71.50;99740.75;3095135;28;20080;-57
2022/01/01 15:11:00;;;;;;;134.25;68.20;;;;;;;17.67;71.56;99736.56;3093861;28;20041;-58
2022/01/01 15:12:33;;;;;;;126.80;65.50;;;;;;;17.69;71.27;99739.88;3094459;28;20045;-55
2022/01/01 15:14:08;;;;;;;131.25;64.40;;;;;;;17.74;71.29;99748.25;3091132;28;20069;-50
2022/01/01 15:15:39;;;;;;;133.15;65.60;;;;;;;17.75;71.28;99745.41;3089813;28;20061;-53
2022/01/01 15:17:12;;;;;;;124.40;60.95;;;;;;;17.81;71.33;99751.97;3093982;28;20053;-51
2022/01/01 15:18:45;;;;;;;126.63;62.53;;;;;;;17.85;71.41;99753.31;3094921;28;20168;-50
2022/01/01 15:20:17;;;;;;;107.45;58.72;;;;;;;17.87;71.35;99756.66;3091994;28;20709;-54
2022/01/01 15:21:56;;;;;;;114.15;62.47;;;;;;;17.81;71.17;99758.19;3095080;28;20076;-53
2022/01/01 15:23:35;;;;;;;107.18;56.80;;;;;;;17.76;71.60;99757.81;3093723;28;20526;-52
2022/01/01 15:25:11;;;;;;;121.32;58.38;;;;;;;17.74;71.47;99759.00;3090090;28;20065;-56
2022/01/01 15:26:45;;;;;;;116.18;59.58;;;;;;;17.70;71.18;99758.50;3096914;28;20050;-56
2022/01/01 15:28:20;;;;;;;106.38;57.83;;;;;;;17.68;71.20;99765.03;3096947;28;20602;-58
2022/01/01 15:30:08;;;;;;;106.78;58.13;;;;;;;17.64;71.19;99762.72;3095836;28;20583;-57
2022/01/01 15:33:09;;;;;;;116.72;60.28;;;;;;;17.62;71.23;99762.03;3095913;28;20046;-56
2022/01/01 15:33:35;;;;;;;113.28;58.10;;;;;;;17.60;70.88;99766.72;3095331;28;20732;-53
2022/01/01 15:35:22;;;;;;;107.20;58.10;;;;;;;17.61;70.98;99765.72;3093584;28;20133;-55
2022/01/01 15:36:54;;;;;;;99.85;56.38;;;;;;;17.58;70.83;99759.88;3088511;28;20547;-56
2022/01/01 15:38:30;;;;;;;103.72;59.47;;;;;;;17.57;70.83;99772.44;3095045;28;20046;-56
2022/01/01 15:40:06;;;;;;;103.13;57.00;;;;;;;17.57;70.77;99764.38;3092528;28;20061;-54
2022/01/01 15:42:17;;;;;;;103.18;56.83;;;;;;;17.53;70.89;99768.41;3096052;28;20456;-58
2022/01/01 15:43:50;;;;;;;106.53;54.83;;;;;;;17.51;70.65;99761.56;3094974;28;20056;-58
2022/01/01 15:45:23;;;;;;;116.43;56.17;;;;;;;17.51;70.51;99762.38;3093694;28;20168;-55
2022/01/01 15:46:55;;;;;;;107.53;57.42;;;;;;;17.51;70.56;99756.19;3093855;28;20054;-55
2022/01/01 15:48:28;;;;;;;100.93;53.78;;;;;;;17.51;70.56;99764.22;3094618;28;20050;-58
2022/01/01 15:50:01;;;;;;;99.28;55.70;;;;;;;17.48;70.61;99762.72;3093539;28;20080;-55
2022/01/01 15:51:33;;;;;;;106.05;57.15;;;;;;;17.46;70.54;99762.03;3091931;28;20050;-57
2022/01/01 15:53:05;;;;;;;110.82;55.30;;;;;;;17.46;70.52;99762.03;3092901;28;20053;-58
2022/01/01 15:54:37;;;;;;;113.75;54.85;;;;;;;17.46;70.53;99763.91;3094752;28;20116;-58
2022/01/01 15:56:14;;;;;;;105.68;56.40;;;;;;;17.42;70.42;99769.59;3089409;28;20085;-55
2022/01/01 15:57:54;;;;;;;108.57;56.60;;;;;;;17.41;70.43;99762.56;3094594;28;20072;-56
2022/01/01 15:59:32;;;;;;;110.35;57.42;;;;;;;17.41;70.52;99759.03;3095591;28;20054;-55
2022/01/01 16:01:15;;;;;;;98.90;54.20;;;;;;;17.40;70.35;99768.09;3097105;28;20054;-56
2022/01/01 16:02:54;;;;;;;95.32;52.53;;;;;;;17.41;70.37;99767.06;3095928;28;20065;-54
2022/01/01 16:04:39;;;;;;;112.65;55.78;;;;;;;17.39;70.25;99763.75;3094501;28;20046;-55
2022/01/01 16:06:13;;;;;;;101.68;54.83;;;;;;;17.38;70.23;99757.53;3097162;28;20060;-54
2022/01/01 16:07:50;;;;;;;100.53;56.22;;;;;;;17.38;70.19;99772.78;3097466;28;20061;-53
2022/01/01 16:09:27;;;;;;;104.80;54.95;;;;;;;17.36;70.17;99769.44;3096587;28;20054;-53
2022/01/01 16:11:03;;;;;;;107.00;55.45;;;;;;;17.35;70.23;99773.13;3093263;28;20137;-54
2022/01/01 16:12:36;;;;;;;99.82;54.15;;;;;;;17.35;70.13;99770.44;3095949;28;20050;-57
2022/01/01 16:14:12;;;;;;;98.53;52.67;;;;;;;17.35;70.15;99765.06;3095136;28;20064;-58
2022/01/01 16:15:49;;;;;;;96.32;54.75;;;;;;;17.33;70.14;99765.25;3096715;28;20049;-59
2022/01/01 16:17:24;;;;;;;102.85;52.80;;;;;;;17.33;70.03;99769.78;3090435;28;20045;-56
2022/01/01 16:19:00;;;;;;;93.63;50.67;;;;;;;17.32;70.12;99771.59;3094075;28;20049;-56
2022/01/01 16:20:32;;;;;;;96.55;51.80;;;;;;;17.32;70.13;99763.56;3095915;28;20137;-51
2022/01/01 16:22:04;;;;;;;95.18;54.67;;;;;;;17.30;69.90;99765.59;3096082;28;20050;-56
2022/01/01 16:23:37;;;;;;;103.15;55.25;;;;;;;17.30;70.08;99764.72;3096878;28;20056;-52
2022/01/01 16:25:10;;;;;;;90.43;51.13;;;;;;;17.28;70.16;99759.56;3094993;28;20061;-53
2022/01/01 16:26:42;;;;;;;92.13;52.15;;;;;;;17.29;69.94;99763.06;3095346;28;20042;-58
2022/01/01 16:28:16;;;;;;;97.13;54.42;;;;;;;17.29;70.13;99763.91;3097862;28;20569;-54
2022/01/01 16:29:48;;;;;;;96.45;54.40;;;;;;;17.26;69.92;99764.22;3097524;28;20397;-55
2022/01/01 16:31:21;;;;;;;92.07;51.00;;;;;;;17.26;69.80;99760.72;3097792;28;20049;-58
2022/01/01 16:32:55;;;;;;;93.35;51.97;;;;;;;17.25;69.85;99762.56;3096410;28;20466;-58
2022/01/01 16:34:28;;;;;;;95.95;53.33;;;;;;;17.25;69.96;99765.25;3095495;28;20050;-55
2022/01/01 16:36:00;;;;;;;105.20;51.92;;;;;;;17.24;70.02;99770.75;3091371;28;20050;-53
2022/01/01 16:37:32;;;;;;;95.20;51.90;;;;;;;17.24;69.90;99768.09;3096138;28;20891;-59
2022/01/01 16:39:04;;;;;;;102.80;53.58;;;;;;;17.23;69.80;99763.75;3096973;28;20054;-56
2022/01/01 16:40:46;;;;;;;90.55;49.50;;;;;;;17.24;69.84;99760.88;3097357;28;20046;-54
2022/01/01 16:42:23;;;;;;;101.13;52.28;;;;;;;17.22;69.92;99767.41;3096211;28;20214;-54
2022/01/01 16:44:00;;;;;;;88.25;52.72;;;;;;;17.20;69.90;99768.41;3095994;28;20697;-57
2022/01/01 16:45:43;;;;;;;88.05;49.08;;;;;;;17.19;69.88;99766.75;3093984;28;20659;-53
2022/01/01 16:47:19;;;;;;;99.57;50.95;;;;;;;17.17;69.89;99768.75;3095672;28;20046;-52
2022/01/01 16:49:01;;;;;;;95.50;50.72;;;;;;;17.18;69.76;99769.59;3097204;28;20205;-55
2022/01/01 16:50:34;;;;;;;100.38;50.53;;;;;;;17.18;69.88;99770.41;3098231;28;20730;-53
2022/01/01 16:52:14;;;;;;;95.22;50.17;;;;;;;17.18;69.71;99772.28;3090632;28;20050;-56
2022/01/01 16:53:47;;;;;;;85.60;47.45;;;;;;;17.17;69.83;99774.13;3096158;28;20050;-53
2022/01/01 16:55:25;;;;;;;96.72;48.47;;;;;;;17.16;69.73;99767.09;3097182;28;20121;-57
2022/01/01 16:56:59;;;;;;;94.03;52.22;;;;;;;17.15;69.79;99773.44;3095793;28;20057;-55
2022/01/01 16:58:31;;;;;;;93.93;50.42;;;;;;;17.15;69.69;99773.44;3095607;28;20116;-55
2022/01/01 17:00:07;;;;;;;93.07;48.65;;;;;;;17.14;69.72;99771.78;3096738;28;20054;-56
2022/01/01 17:01:41;;;;;;;95.05;50.25;;;;;;;17.15;69.72;99772.59;3096418;28;20054;-55
2022/01/01 17:03:24;;;;;;;85.18;47.15;;;;;;;17.14;69.72;99774.44;3096666;28;20068;-53
2022/01/01 17:05:04;;;;;;;83.88;48.75;;;;;;;17.14;69.58;99766.41;3095465;28;20062;-55
2022/01/01 17:06:37;;;;;;;88.55;47.53;;;;;;;17.13;69.61;99771.94;3094782;28;20080;-55
2022/01/01 17:08:09;;;;;;;88.68;50.10;;;;;;;17.11;69.61;99769.44;3095699;28;20050;-55
2022/01/01 17:09:43;;;;;;;86.93;48.42;;;;;;;17.11;69.64;99772.09;3097539;28;20052;-53
2022/01/01 17:11:16;;;;;;;83.32;48.35;;;;;;;17.10;69.64;99783.81;3096352;28;20057;-55
2022/01/01 17:12:48;;;;;;;86.65;47.47;;;;;;;17.10;69.72;99778.44;3097066;28;20053;-54
2022/01/01 17:14:21;;;;;;;94.40;51.30;;;;;;;17.09;69.67;99784.84;3095802;28;20042;-52
2022/01/01 17:16:02;;;;;;;83.88;46.92;;;;;;;17.09;69.49;99775.97;3092690;28;20080;-56
2022/01/01 17:17:40;;;;;;;90.40;48.77;;;;;;;17.08;69.61;99785.84;3097478;28;20141;-53
2022/01/01 17:19:18;;;;;;;89.65;48.75;;;;;;;17.08;69.46;99783.16;3097218;28;20699;-52
2022/01/01 17:20:56;;;;;;;86.97;46.55;;;;;;;17.08;69.60;99788.53;3095866;28;20112;-52
2022/01/01 17:22:34;;;;;;;89.80;48.72;;;;;;;17.07;69.38;99789.50;3097379;28;20143;-55
2022/01/01 17:24:12;;;;;;;85.22;45.20;;;;;;;17.08;69.60;99787.69;3097293;28;20050;-50
2022/01/01 17:25:48;;;;;;;89.75;49.97;;;;;;;17.06;69.45;99789.69;3093980;28;20062;-52
2022/01/01 17:27:27;;;;;;;89.20;49.50;;;;;;;17.06;69.50;99785.16;3095124;28;20132;-52
2022/01/01 17:29:04;;;;;;;85.63;48.88;;;;;;;17.03;69.59;99785.50;3095016;28;20107;-53
2022/01/01 17:30:39;;;;;;;84.50;46.17;;;;;;;17.04;69.47;99787.16;3096150;28;20123;-54
2022/01/01 17:32:14;;;;;;;86.55;48.40;;;;;;;17.03;69.58;99788.19;3095354;28;20053;-53
2022/01/01 17:34:01;;;;;;;82.28;46.15;;;;;;;17.02;69.52;99786.50;3096168;28;20046;-54
2022/01/01 17:35:42;;;;;;;81.65;45.28;;;;;;;17.01;69.47;99795.53;3092403;28;20112;-54
2022/01/01 17:37:17;;;;;;;84.07;47.83;;;;;;;17.01;69.48;99787.50;3094299;28;20061;-56
2022/01/01 17:40:51;;;;;;;80.40;45.20;;;;;;;17.02;69.43;99793.69;3098819;28;20050;-50
2022/01/01 17:42:27;;;;;;;85.05;46.17;;;;;;;16.99;69.51;99797.53;3094595;28;20047;-53
2022/01/01 17:44:00;;;;;;;84.97;46.72;;;;;;;16.99;69.36;99797.53;3092435;28;20045;-55
2022/01/01 17:45:32;;;;;;;84.55;45.13;;;;;;;16.98;69.37;99802.06;3093447;28;20069;-52
2022/01/01 17:47:05;;;;;;;89.13;47.35;;;;;;;16.97;69.49;99796.88;3096232;28;20061;-50
2022/01/01 17:48:44;;;;;;;87.55;46.60;;;;;;;16.98;69.58;99795.88;3095129;28;20080;-56
2022/01/01 17:50:19;;;;;;;85.88;48.28;;;;;;;16.97;69.63;99795.03;3094815;28;20068;-55
2022/01/01 17:51:54;;;;;;;72.38;42.88;;;;;;;16.97;69.53;99804.94;3095273;28;20146;-56
2022/01/01 17:53:27;;;;;;;72.82;42.20;;;;;;;16.99;69.48;99797.53;3092136;28;20050;-54
2022/01/01 17:55:00;;;;;;;74.97;45.08;;;;;;;16.99;69.57;99800.22;3093013;28;20054;-53
2022/01/01 17:56:32;;;;;;;77.00;44.75;;;;;;;16.99;69.62;99800.22;3095826;28;20056;-55
2022/01/01 17:58:05;;;;;;;79.00;42.65;;;;;;;17.00;69.40;99803.75;3095343;28;20080;-55
2022/01/01 17:59:42;;;;;;;78.40;43.95;;;;;;;17.00;69.57;99799.22;3095449;28;20613;-56
2022/01/01 18:01:14;;;;;;;80.43;45.75;;;;;;;17.01;69.47;99800.91;3094859;28;21183;-55
2022/01/01 18:02:47;;;;;;;78.95;44.85;;;;;;;17.02;69.45;99804.41;3093036;28;20527;-56
2022/01/01 18:04:19;;;;;;;76.55;45.60;;;;;;;17.01;69.55;99803.56;3095357;28;20157;-52
2022/01/01 18:05:52;;;;;;;81.35;44.40;;;;;;;17.02;69.43;99807.97;3095547;28;20064;-54
2022/01/01 18:07:36;;;;;;;77.85;44.03;;;;;;;17.01;69.46;99803.56;3095666;28;20054;-53
2022/01/01 18:09:11;;;;;;;79.18;45.25;;;;;;;17.02;69.39;99810.63;3094521;28;20491;-53
2022/01/01 18:10:44;;;;;;;69.72;42.55;;;;;;;17.03;69.51;99806.94;3093529;28;20042;-54
2022/01/01 18:12:17;;;;;;;82.35;44.05;;;;;;;17.02;69.56;99804.41;3094651;28;20046;-52
2022/01/01 18:13:54;;;;;;;74.40;44.05;;;;;;;17.02;69.40;99810.63;3095108;28;20066;-57
2022/01/01 18:15:27;;;;;;;75.78;42.88;;;;;;;17.03;69.44;99801.59;3092947;28;20046;-53
2022/01/01 18:17:00;;;;;;;69.90;41.97;;;;;;;17.04;69.35;99807.78;3094763;28;20754;-54
2022/01/01 18:18:34;;;;;;;74.72;43.25;;;;;;;17.02;69.47;99810.63;3096481;28;20057;-54
2022/01/01 18:20:09;;;;;;;74.93;42.40;;;;;;;17.02;69.34;99804.41;3090768;28;21068;-55
2022/01/01 18:21:45;;;;;;;64.85;41.20;;;;;;;17.01;69.47;99800.91;3095807;28;20045;-55
2022/01/01 18:23:17;;;;;;;72.95;44.40;;;;;;;17.02;69.38;99809.78;3094576;28;20050;-53
2022/01/01 18:25:04;;;;;;;75.57;44.83;;;;;;;17.02;69.27;99801.72;3096150;28;20112;-57
2022/01/01 18:26:42;;;;;;;75.68;43.33;;;;;;;17.02;69.39;99801.72;3098233;28;20589;-54
2022/01/01 18:28:21;;;;;;;79.03;44.85;;;;;;;17.02;69.37;99796.38;3095667;28;20093;-54
2022/01/01 18:29:53;;;;;;;77.65;43.53;;;;;;;17.02;69.30;99799.06;3095816;28;20420;-54
2022/01/01 18:31:27;;;;;;;78.60;44.20;;;;;;;17.01;69.41;99803.56;3098359;28;20052;-52
2022/01/01 18:32:59;;;;;;;72.85;44.00;;;;;;;17.01;69.31;99800.91;3098229;28;20517;-53
2022/01/01 18:34:32;;;;;;;70.93;41.92;;;;;;;17.01;69.23;99800.91;3097950;28;20050;-55
2022/01/01 18:36:06;;;;;;;67.15;40.55;;;;;;;17.02;69.39;99805.28;3092163;28;20093;-51
2022/01/01 18:37:38;;;;;;;69.45;41.50;;;;;;;17.01;69.24;99795.53;3096103;28;20061;-51
2022/01/01 18:39:10;;;;;;;75.43;42.40;;;;;;;17.02;69.14;99799.91;3097969;28;20054;-54
2022/01/01 18:40:45;;;;;;;74.35;43.95;;;;;;;17.01;69.12;99798.22;3098167;28;20567;-55
2022/01/01 18:42:18;;;;;;;65.18;41.70;;;;;;;17.00;69.17;99801.91;3097335;28;20127;-52
2022/01/01 18:43:50;;;;;;;77.55;42.13;;;;;;;17.01;69.23;99803.56;3096757;28;20065;-56
2022/01/01 18:45:22;;;;;;;75.80;42.47;;;;;;;17.00;69.16;99804.59;3095461;28;20951;-53
2022/01/01 18:46:54;;;;;;;68.55;42.13;;;;;;;17.00;69.08;99804.59;3097614;28;20560;-50
2022/01/01 18:48:26;;;;;;;67.25;40.90;;;;;;;16.98;69.19;99796.69;3098553;28;20045;-53
2022/01/01 18:49:58;;;;;;;72.93;40.85;;;;;;;16.99;69.06;99797.53;3097619;28;20050;-53
2022/01/01 18:51:34;;;;;;;68.90;41.33;;;;;;;16.98;69.17;99798.56;3097004;28;20085;-54
2022/01/01 18:53:09;;;;;;;69.97;41.08;;;;;;;16.98;69.20;99798.56;3097898;28;20058;-55
2022/01/01 18:54:45;;;;;;;70.63;42.25;;;;;;;16.98;69.08;99795.88;3087781;28;20053;-54
2022/01/01 18:56:23;;;;;;;74.18;39.92;;;;;;;17.00;69.14;99806.44;3094876;28;20054;-53
2022/01/01 18:57:59;;;;;;;67.50;39.83;;;;;;;16.96;69.12;99801.38;3092600;28;20042;-56
2022/01/01 18:59:35;;;;;;;73.85;42.95;;;;;;;16.96;69.21;99801.38;3086330;28;20116;-53
2022/01/01 19:01:07;;;;;;;73.20;40.33;;;;;;;16.96;69.20;99801.38;3095526;28;20104;-53
2022/01/01 19:02:47;;;;;;;74.22;42.10;;;;;;;16.97;69.08;99804.94;3097656;28;20054;-55
2022/01/01 19:04:23;;;;;;;71.47;39.53;;;;;;;16.96;69.17;99806.75;3094266;28;20054;-56
2022/01/01 19:05:58;;;;;;;72.82;41.08;;;;;;;16.97;69.11;99804.94;3097819;28;20062;-55
2022/01/01 19:07:32;;;;;;;71.13;39.45;;;;;;;16.96;69.11;99806.75;3096727;28;20054;-53
2022/01/01 19:09:04;;;;;;;69.80;40.85;;;;;;;16.96;69.01;99816.63;3099199;28;20058;-55
2022/01/01 19:10:39;;;;;;;67.18;40.40;;;;;;;16.96;69.08;99816.63;3097715;28;20093;-53
2022/01/01 19:12:18;;;;;;;75.63;43.08;;;;;;;16.96;69.03;99819.31;3095736;28;20049;-56
2022/01/01 19:13:56;;;;;;;73.40;41.25;;;;;;;16.95;68.90;99823.00;3098919;28;20055;-55
2022/01/01 19:15:32;;;;;;;75.65;43.08;;;;;;;16.95;69.06;99809.59;3097913;28;20069;-53
2022/01/01 19:17:05;;;;;;;72.05;40.30;;;;;;;16.95;69.01;99815.78;3096034;28;20037;-54
2022/01/01 19:18:37;;;;;;;68.68;39.20;;;;;;;16.94;69.03;99819.50;3098160;28;20137;-51
2022/01/01 19:20:10;;;;;;;67.25;38.78;;;;;;;16.94;68.96;99815.97;3095327;28;20123;-53
2022/01/01 19:21:44;;;;;;;66.05;39.42;;;;;;;16.93;68.85;99817.78;3096700;28;20065;-53
2022/01/01 19:23:18;;;;;;;67.63;40.47;;;;;;;16.94;68.86;99826.69;3094716;28;20128;-54
2022/01/01 19:24:51;;;;;;;64.80;39.50;;;;;;;16.92;69.00;99826.84;3093759;28;20796;-58
2022/01/01 19:26:28;;;;;;;62.60;37.72;;;;;;;16.93;68.86;99833.03;3094778;28;20045;-53
2022/01/01 19:28:02;;;;;;;68.13;39.35;;;;;;;16.93;68.88;99828.50;3092456;28;20491;-53
2022/01/01 19:29:36;;;;;;;67.00;39.22;;;;;;;16.94;68.79;99824.03;3096123;28;20522;-54
2022/01/01 19:31:10;;;;;;;65.78;38.05;;;;;;;16.92;68.92;99826.84;3096005;28;20050;-53
2022/01/01 19:32:43;;;;;;;68.95;38.55;;;;;;;16.92;68.78;99831.38;3096272;28;20507;-56
2022/01/01 19:34:15;;;;;;;69.53;39.75;;;;;;;16.92;68.83;99837.56;3095621;28;20045;-58
2022/01/01 19:35:48;;;;;;;65.20;39.90;;;;;;;16.92;68.81;99834.88;3095421;28;20050;-54
2022/01/01 19:37:20;;;;;;;61.28;38.95;;;;;;;16.92;68.83;99837.56;3096599;28;20145;-55
2022/01/01 19:38:52;;;;;;;62.80;37.97;;;;;;;16.92;68.80;99831.38;3094662;28;20042;-52
2022/01/01 19:40:25;;;;;;;65.95;37.13;;;;;;;16.93;68.82;99836.56;3093948;28;20104;-54
2022/01/01 19:42:05;;;;;;;58.17;36.47;;;;;;;16.93;68.94;99839.22;3094238;28;20480;-54
2022/01/01 19:43:48;;;;;;;58.95;35.75;;;;;;;16.95;68.85;99841.75;3095659;28;20050;-58
2022/01/01 19:45:20;;;;;;;59.13;35.58;;;;;;;16.97;68.88;99839.75;3095400;28;20163;-54
2022/01/01 19:47:00;;;;;;;60.80;37.55;;;;;;;16.99;68.89;99832.38;3097282;28;20054;-53
2022/01/01 19:48:41;;;;;;;68.75;37.13;;;;;;;17.03;68.88;99839.09;3094580;28;20081;-55
2022/01/01 19:50:14;;;;;;;67.30;37.93;;;;;;;17.05;68.69;99838.91;3098869;28;20105;-53
2022/01/01 19:51:46;;;;;;;59.20;37.38;;;;;;;17.08;68.77;99838.63;3097154;28;20069;-55
2022/01/01 19:53:18;;;;;;;64.00;35.95;;;;;;;17.07;68.69;99834.25;3091698;28;20050;-54
2022/01/01 19:54:50;;;;;;;66.07;38.00;;;;;;;17.09;68.64;99848.34;3092606;28;20046;-55
2022/01/01 19:56:21;;;;;;;62.13;36.70;;;;;;;17.11;68.74;99849.84;3094979;28;20610;-54
2022/01/01 19:57:54;;;;;;;64.95;37.13;;;;;;;17.14;68.53;99846.84;3095313;28;20065;-54
2022/01/01 19:59:27;;;;;;;60.28;34.20;;;;;;;17.16;68.64;99844.84;3096524;28;20046;-55
2022/01/01 20:00:59;;;;;;;57.45;34.35;;;;;;;17.16;68.69;99857.38;3095982;28;20112;-55
2022/01/01 20:02:31;;;;;;;60.05;35.10;;;;;;;17.17;68.63;99851.88;3094895;28;20104;-56
2022/01/01 20:04:02;;;;;;;57.85;34.03;;;;;;;17.18;68.57;99852.69;3091550;28;20108;-57
2022/01/01 20:05:34;;;;;;;63.83;36.55;;;;;;;17.18;68.53;99848.16;3092070;28;20802;-53
2022/01/01 20:07:06;;;;;;;62.72;37.60;;;;;;;17.20;68.53;99853.38;3096697;28;20058;-56
2022/01/01 20:08:38;;;;;;;54.75;34.13;;;;;;;17.19;68.54;99849.88;3096765;28;20600;-56
2022/01/01 20:10:11;;;;;;;60.20;35.08;;;;;;;17.24;68.48;99845.84;3092775;28;20053;-56
2022/01/01 20:11:43;;;;;;;58.00;33.40;;;;;;;17.24;68.54;99849.34;3094673;28;20129;-56
2022/01/01 20:13:14;;;;;;;58.72;36.20;;;;;;;17.25;68.47;99853.72;3095402;28;20045;-55
2022/01/01 20:14:48;;;;;;;55.03;32.63;;;;;;;17.25;68.51;99853.72;3094579;28;20070;-55
2022/01/01 20:16:24;;;;;;;57.92;35.13;;;;;;;17.27;68.45;99854.38;3096331;28;20560;-54
2022/01/01 20:17:56;;;;;;;57.00;37.05;;;;;;;17.27;68.39;99850.88;3092841;28;20807;-56
2022/01/01 20:19:28;;;;;;;60.05;35.15;;;;;;;17.28;68.29;99849.88;3093438;28;20064;-56
2022/01/01 20:21:00;;;;;;;52.03;31.98;;;;;;;17.28;68.27;99852.56;3097379;28;20042;-55
2022/01/01 20:22:32;;;;;;;58.50;33.33;;;;;;;17.28;68.36;99860.59;3094966;28;20431;-56
2022/01/01 20:24:04;;;;;;;57.58;34.65;;;;;;;17.30;68.29;99855.91;3092971;28;20108;-52
2022/01/01 20:25:36;;;;;;;55.58;33.08;;;;;;;17.30;68.43;99862.13;3093927;28;20054;-55
2022/01/01 20:27:09;;;;;;;55.55;33.70;;;;;;;17.32;68.36;99862.78;3097511;28;20074;-54
2022/01/01 20:28:40;;;;;;;54.78;31.77;;;;;;;17.33;68.37;99861.78;3094337;28;20525;-55
2022/01/01 20:30:15;;;;;;;54.35;33.40;;;;;;;17.36;68.16;99858.78;3093797;28;20050;-53
2022/01/01 20:31:47;;;;;;;58.05;35.22;;;;;;;17.39;68.12;99860.28;3092878;28;20074;-53
2022/01/01 20:33:19;;;;;;;51.97;30.35;;;;;;;17.40;68.14;99861.94;3096030;28;20057;-54
2022/01/01 20:34:51;;;;;;;52.10;33.63;;;;;;;17.41;68.27;99861.81;3095807;28;20503;-56
2022/01/01 20:36:23;;;;;;;53.70;32.55;;;;;;;17.42;68.20;99857.28;3096550;28;20085;-56
2022/01/01 20:37:57;;;;;;;59.90;33.60;;;;;;;17.45;68.01;99856.94;3095382;28;20064;-54
2022/01/01 20:39:29;;;;;;;55.20;31.17;;;;;;;17.49;68.12;99865.47;3094974;28;20054;-58
2022/01/01 20:41:00;;;;;;;56.28;32.63;;;;;;;17.51;68.03;99863.47;3094503;28;20479;-50
2022/01/01 20:42:33;;;;;;;59.22;36.47;;;;;;;17.53;68.11;99865.00;3095073;28;20046;-54
2022/01/01 20:44:05;;;;;;;48.17;29.75;;;;;;;17.56;68.01;99850.41;3094501;28;20129;-52
2022/01/01 20:45:39;;;;;;;58.35;33.08;;;;;;;17.58;67.91;99854.59;3093476;28;20042;-54
2022/01/01 20:47:10;;;;;;;50.95;30.95;;;;;;;17.61;67.87;99858.78;3091236;28;20045;-54
2022/01/01 20:48:42;;;;;;;53.38;31.65;;;;;;;17.64;67.84;99864.66;3094197;28;20081;-56
2022/01/01 20:50:14;;;;;;;52.17;31.00;;;;;;;17.65;67.73;99860.13;3093355;28;20202;-53
2022/01/01 20:51:48;;;;;;;49.50;31.10;;;;;;;17.69;67.65;99861.47;3094897;28;20069;-55